sensor_id;sensor_type;location;lat;lon;timestamp;pressure;altitude;pressure_sealevel;temperature;humidity
9855;BME280;4966;48.112;9.282;2023-06-04T00:01:38;94642.69;;;16.86;51.46
9855;BME280;4966;48.112;9.282;2023-06-04T00:04:03;94657.16;;;16.79;52.49
9855;BME280;4966;48.112;9.282;2023-06-04T00:06:29;94647.13;;;16.61;52.32
9855;BME280;4966;48.112;9.282;2023-06-04T00:08:54;94648.25;;;16.56;52.80
9855;BME280;4966;48.112;9.282;2023-06-04T00:11:19;94650.03;;;16.37;53.61
9855;BME280;4966;48.112;9.282;2023-06-04T00:13:45;94659.47;;;16.40;53.15
9855;BME280;4966;48.112;9.282;2023-06-04T00:16:10;94647.16;;;16.27;53.43
9855;BME280;4966;48.112;9.282;2023-06-04T00:18:36;94649.28;;;16.41;52.93
9855;BME280;4966;48.112;9.282;2023-06-04T00:21:01;94641.00;;;16.37;52.25
9855;BME280;4966;48.112;9.282;2023-06-04T00:23:26;94652.41;;;16.39;51.73
9855;BME280;4966;48.112;9.282;2023-06-04T00:25:52;94642.63;;;16.42;52.97
9855;BME280;4966;48.112;9.282;2023-06-04T00:28:17;94648.97;;;16.49;52.08
9855;BME280;4966;48.112;9.282;2023-06-04T00:30:42;94646.81;;;16.28;52.02
9855;BME280;4966;48.112;9.282;2023-06-04T00:33:08;94642.41;;;16.57;50.85
9855;BME280;4966;48.112;9.282;2023-06-04T00:35:33;94646.69;;;16.55;50.67
9855;BME280;4966;48.112;9.282;2023-06-04T00:37:58;94638.94;;;16.27;51.06
9855;BME280;4966;48.112;9.282;2023-06-04T00:40:24;94647.09;;;16.57;50.39
9855;BME280;4966;48.112;9.282;2023-06-04T00:42:50;94649.38;;;16.51;50.74
9855;BME280;4966;48.112;9.282;2023-06-04T00:45:15;94640.44;;;16.58;50.67
9855;BME280;4966;48.112;9.282;2023-06-04T00:47:43;94641.16;;;16.51;51.08
9855;BME280;4966;48.112;9.282;2023-06-04T00:50:10;94648.97;;;16.49;50.66
9855;BME280;4966;48.112;9.282;2023-06-04T00:52:36;94646.28;;;16.56;51.49
9855;BME280;4966;48.112;9.282;2023-06-04T00:55:02;94650.84;;;16.42;50.89
9855;BME280;4966;48.112;9.282;2023-06-04T00:57:27;94646.41;;;16.30;51.05
9855;BME280;4966;48.112;9.282;2023-06-04T00:59:53;94648.66;;;16.21;51.26
9855;BME280;4966;48.112;9.282;2023-06-04T01:02:21;94658.84;;;16.20;51.63
9855;BME280;4966;48.112;9.282;2023-06-04T01:07:45;94650.25;;;16.22;51.65
9855;BME280;4966;48.112;9.282;2023-06-04T01:10:14;94640.03;;;16.19;51.73
9855;BME280;4966;48.112;9.282;2023-06-04T01:12:40;94646.22;;;16.12;52.54
9855;BME280;4966;48.112;9.282;2023-06-04T01:15:06;94650.94;;;16.15;52.65
9855;BME280;4966;48.112;9.282;2023-06-04T01:17:37;94646.53;;;15.73;53.56
9855;BME280;4966;48.112;9.282;2023-06-04T01:25:41;94658.22;;;15.70;53.47
9855;BME280;4966;48.112;9.282;2023-06-04T01:28:10;94647.50;;;15.61;53.79
9855;BME280;4966;48.112;9.282;2023-06-04T01:30:38;94659.41;;;15.46;54.06
9855;BME280;4966;48.112;9.282;2023-06-04T01:33:10;94655.03;;;15.41;54.19
9855;BME280;4966;48.112;9.282;2023-06-04T01:35:36;94654.72;;;15.46;54.03
9855;BME280;4966;48.112;9.282;2023-06-04T01:38:02;94651.25;;;15.23;54.73
9855;BME280;4966;48.112;9.282;2023-06-04T01:40:27;94655.50;;;15.20;54.93
9855;BME280;4966;48.112;9.282;2023-06-04T01:42:53;94656.63;;;15.16;55.15
9855;BME280;4966;48.112;9.282;2023-06-04T01:45:20;94652.19;;;15.34;54.90
9855;BME280;4966;48.112;9.282;2023-06-04T01:47:46;94659.94;;;15.28;55.37
9855;BME280;4966;48.112;9.282;2023-06-04T01:50:11;94657.78;;;15.15;55.88
9855;BME280;4966;48.112;9.282;2023-06-04T01:52:37;94654.69;;;14.93;55.72
9855;BME280;4966;48.112;9.282;2023-06-04T01:55:04;94658.22;;;14.94;56.10
9855;BME280;4966;48.112;9.282;2023-06-04T01:57:29;94655.47;;;14.94;56.44
9855;BME280;4966;48.112;9.282;2023-06-04T01:59:55;94656.75;;;14.77;56.47
9855;BME280;4966;48.112;9.282;2023-06-04T02:02:20;94656.94;;;14.87;56.16
9855;BME280;4966;48.112;9.282;2023-06-04T02:04:46;94659.38;;;14.93;56.36
9855;BME280;4966;48.112;9.282;2023-06-04T02:07:12;94656.75;;;14.77;56.46
9855;BME280;4966;48.112;9.282;2023-06-04T02:09:43;94659.50;;;14.77;56.54
9855;BME280;4966;48.112;9.282;2023-06-04T02:12:08;94651.97;;;14.70;56.46
9855;BME280;4966;48.112;9.282;2023-06-04T02:14:33;94653.34;;;14.41;57.85
9855;BME280;4966;48.112;9.282;2023-06-04T02:16:59;94660.66;;;14.33;58.14
9855;BME280;4966;48.112;9.282;2023-06-04T02:19:26;94661.56;;;14.41;57.89
9855;BME280;4966;48.112;9.282;2023-06-04T02:21:52;94655.03;;;14.26;58.31
9855;BME280;4966;48.112;9.282;2023-06-04T02:24:18;94652.44;;;14.33;58.17
9855;BME280;4966;48.112;9.282;2023-06-04T02:26:43;94659.84;;;14.33;58.81
9855;BME280;4966;48.112;9.282;2023-06-04T02:29:08;94665.53;;;14.24;58.91
9855;BME280;4966;48.112;9.282;2023-06-04T02:31:34;94662.47;;;14.06;59.55
9855;BME280;4966;48.112;9.282;2023-06-04T02:33:59;94666.06;;;13.91;59.94
9855;BME280;4966;48.112;9.282;2023-06-04T02:36:24;94664.47;;;13.90;60.03
9855;BME280;4966;48.112;9.282;2023-06-04T02:38:50;94672.84;;;13.97;59.50
9855;BME280;4966;48.112;9.282;2023-06-04T02:41:16;94666.59;;;13.96;59.35
9855;BME280;4966;48.112;9.282;2023-06-04T02:43:41;94670.69;;;13.87;59.43
9855;BME280;4966;48.112;9.282;2023-06-04T02:46:07;94666.88;;;13.91;59.75
9855;BME280;4966;48.112;9.282;2023-06-04T02:48:32;94665.84;;;13.80;60.03
9855;BME280;4966;48.112;9.282;2023-06-04T02:50:57;94666.19;;;13.78;60.13
9855;BME280;4966;48.112;9.282;2023-06-04T02:53:23;94673.03;;;13.69;60.48
9855;BME280;4966;48.112;9.282;2023-06-04T02:55:49;94676.78;;;13.45;60.95
9855;BME280;4966;48.112;9.282;2023-06-04T02:58:16;94673.84;;;13.34;61.66
9855;BME280;4966;48.112;9.282;2023-06-04T03:00:41;94675.81;;;13.21;62.16
9855;BME280;4966;48.112;9.282;2023-06-04T03:03:07;94674.88;;;13.29;61.93
9855;BME280;4966;48.112;9.282;2023-06-04T03:05:32;94684.03;;;13.21;61.85
9855;BME280;4966;48.112;9.282;2023-06-04T03:07:58;94673.81;;;13.18;61.85
9855;BME280;4966;48.112;9.282;2023-06-04T03:10:24;94682.53;;;13.24;61.63
9855;BME280;4966;48.112;9.282;2023-06-04T03:12:50;94680.78;;;13.15;61.78
9855;BME280;4966;48.112;9.282;2023-06-04T03:15:15;94681.56;;;13.16;61.50
9855;BME280;4966;48.112;9.282;2023-06-04T03:17:41;94680.69;;;12.96;61.92
9855;BME280;4966;48.112;9.282;2023-06-04T03:20:07;94681.47;;;12.81;63.12
9855;BME280;4966;48.112;9.282;2023-06-04T03:22:33;94681.66;;;12.72;63.44
9855;BME280;4966;48.112;9.282;2023-06-04T03:25:01;94689.31;;;12.82;62.98
9855;BME280;4966;48.112;9.282;2023-06-04T03:27:26;94685.09;;;12.69;63.29
9855;BME280;4966;48.112;9.282;2023-06-04T03:29:51;94687.22;;;12.60;63.41
9855;BME280;4966;48.112;9.282;2023-06-04T03:32:17;94686.06;;;12.61;63.43
9855;BME280;4966;48.112;9.282;2023-06-04T03:34:43;94696.34;;;12.51;63.79
9855;BME280;4966;48.112;9.282;2023-06-04T03:37:08;94686.56;;;12.66;63.47
9855;BME280;4966;48.112;9.282;2023-06-04T03:39:33;94695.41;;;12.60;63.35
9855;BME280;4966;48.112;9.282;2023-06-04T03:41:59;94696.19;;;12.60;63.45
9855;BME280;4966;48.112;9.282;2023-06-04T03:44:24;94699.06;;;12.51;63.62
9855;BME280;4966;48.112;9.282;2023-06-04T03:46:50;94700.47;;;12.45;63.90
9855;BME280;4966;48.112;9.282;2023-06-04T03:49:15;94696.34;;;12.51;64.03
9855;BME280;4966;48.112;9.282;2023-06-04T03:51:42;94698.00;;;12.56;63.37
9855;BME280;4966;48.112;9.282;2023-06-04T03:54:07;94699.59;;;12.41;63.76
9855;BME280;4966;48.112;9.282;2023-06-04T03:56:33;94703.88;;;12.42;64.08
9855;BME280;4966;48.112;9.282;2023-06-04T03:58:58;94712.00;;;12.54;63.74
9855;BME280;4966;48.112;9.282;2023-06-04T04:01:24;94709.72;;;12.56;63.68
9855;BME280;4966;48.112;9.282;2023-06-04T04:03:50;94707.19;;;12.64;63.75
9855;BME280;4966;48.112;9.282;2023-06-04T04:06:16;94713.97;;;12.70;63.58
9855;BME280;4966;48.112;9.282;2023-06-04T04:08:41;94702.25;;;12.53;63.87
9855;BME280;4966;48.112;9.282;2023-06-04T04:11:12;94708.94;;;12.28;65.27
9855;BME280;4966;48.112;9.282;2023-06-04T04:13:37;94708.22;;;12.59;64.47
9855;BME280;4966;48.112;9.282;2023-06-04T04:16:02;94699.53;;;12.69;64.00
9855;BME280;4966;48.112;9.282;2023-06-04T04:18:32;94711.88;;;12.79;63.75
9855;BME280;4966;48.112;9.282;2023-06-04T04:20:58;94701.13;;;12.86;63.36
9855;BME280;4966;48.112;9.282;2023-06-04T04:23:24;94711.09;;;12.94;63.28
9855;BME280;4966;48.112;9.282;2023-06-04T04:25:49;94707.47;;;12.90;63.40
9855;BME280;4966;48.112;9.282;2023-06-04T04:28:15;94710.75;;;12.96;63.50
9855;BME280;4966;48.112;9.282;2023-06-04T04:30:42;94716.63;;;13.14;63.26
9855;BME280;4966;48.112;9.282;2023-06-04T04:33:07;94723.16;;;13.25;62.90
9855;BME280;4966;48.112;9.282;2023-06-04T04:35:33;94721.34;;;13.29;62.53
9855;BME280;4966;48.112;9.282;2023-06-04T04:37:59;94722.13;;;13.46;61.22
9855;BME280;4966;48.112;9.282;2023-06-04T04:40:28;94713.25;;;13.52;61.66
9855;BME280;4966;48.112;9.282;2023-06-04T04:42:53;94714.47;;;13.71;61.27
9855;BME280;4966;48.112;9.282;2023-06-04T04:45:19;94713.91;;;13.81;61.56
9855;BME280;4966;48.112;9.282;2023-06-04T04:47:44;94716.75;;;14.04;61.12
9855;BME280;4966;48.112;9.282;2023-06-04T04:50:10;94717.94;;;14.45;59.85
9855;BME280;4966;48.112;9.282;2023-06-04T04:52:35;94720.78;;;14.92;58.55
9855;BME280;4966;48.112;9.282;2023-06-04T04:55:00;94719.69;;;15.19;56.69
9855;BME280;4966;48.112;9.282;2023-06-04T04:57:26;94730.47;;;15.81;54.42
9855;BME280;4966;48.112;9.282;2023-06-04T04:59:51;94722.03;;;16.24;53.41
9855;BME280;4966;48.112;9.282;2023-06-04T05:02:17;94722.66;;;16.44;52.45
9855;BME280;4966;48.112;9.282;2023-06-04T05:04:42;94726.84;;;16.68;52.43
9855;BME280;4966;48.112;9.282;2023-06-04T05:07:08;94729.22;;;16.69;52.63
9855;BME280;4966;48.112;9.282;2023-06-04T05:09:33;94731.56;;;16.67;53.03
9855;BME280;4966;48.112;9.282;2023-06-04T05:11:58;94726.25;;;16.82;52.06
9855;BME280;4966;48.112;9.282;2023-06-04T05:14:23;94732.66;;;16.93;52.46
9855;BME280;4966;48.112;9.282;2023-06-04T05:16:49;94727.63;;;17.02;52.28
9855;BME280;4966;48.112;9.282;2023-06-04T05:19:15;94736.69;;;17.06;53.25
9855;BME280;4966;48.112;9.282;2023-06-04T05:21:42;94732.09;;;17.17;52.85
9855;BME280;4966;48.112;9.282;2023-06-04T05:24:09;94730.31;;;17.39;52.49
9855;BME280;4966;48.112;9.282;2023-06-04T05:26:35;94733.59;;;17.11;52.96
9855;BME280;4966;48.112;9.282;2023-06-04T05:29:00;94732.94;;;17.21;53.46
9855;BME280;4966;48.112;9.282;2023-06-04T05:31:26;94743.09;;;17.17;52.01
9855;BME280;4966;48.112;9.282;2023-06-04T05:33:52;94748.06;;;17.49;53.28
9855;BME280;4966;48.112;9.282;2023-06-04T05:36:17;94745.06;;;17.69;52.72
9855;BME280;4966;48.112;9.282;2023-06-04T05:38:43;94750.22;;;17.70;50.97
9855;BME280;4966;48.112;9.282;2023-06-04T05:41:08;94742.13;;;17.95;49.54
9855;BME280;4966;48.112;9.282;2023-06-04T05:43:33;94751.69;;;18.12;48.08
9855;BME280;4966;48.112;9.282;2023-06-04T05:45:59;94749.97;;;17.93;46.47
9855;BME280;4966;48.112;9.282;2023-06-04T05:48:24;94757.28;;;17.71;47.91
9855;BME280;4966;48.112;9.282;2023-06-04T05:50:50;94750.94;;;18.19;48.12
9855;BME280;4966;48.112;9.282;2023-06-04T05:53:16;94758.84;;;18.27;46.29
9855;BME280;4966;48.112;9.282;2023-06-04T05:55:41;94763.88;;;18.15;47.06
9855;BME280;4966;48.112;9.282;2023-06-04T05:58:06;94764.50;;;17.87;46.82
9855;BME280;4966;48.112;9.282;2023-06-04T06:00:32;94757.94;;;18.05;46.41
9855;BME280;4966;48.112;9.282;2023-06-04T06:02:57;94761.91;;;18.12;46.37
9855;BME280;4966;48.112;9.282;2023-06-04T06:05:23;94766.50;;;17.93;45.37
9855;BME280;4966;48.112;9.282;2023-06-04T06:07:48;94759.66;;;17.73;45.56
9855;BME280;4966;48.112;9.282;2023-06-04T06:10:14;94757.56;;;17.55;45.39
9855;BME280;4966;48.112;9.282;2023-06-04T06:12:41;94756.13;;;17.72;45.73
9855;BME280;4966;48.112;9.282;2023-06-04T06:15:06;94760.00;;;18.26;46.10
9855;BME280;4966;48.112;9.282;2023-06-04T06:17:32;94759.72;;;18.42;44.79
9855;BME280;4966;48.112;9.282;2023-06-04T06:20:01;94759.75;;;18.49;43.85
9855;BME280;4966;48.112;9.282;2023-06-04T06:22:29;94755.28;;;18.20;44.57
9855;BME280;4966;48.112;9.282;2023-06-04T06:24:55;94757.59;;;18.14;45.15
9855;BME280;4966;48.112;9.282;2023-06-04T06:27:20;94760.56;;;18.54;44.32
9855;BME280;4966;48.112;9.282;2023-06-04T06:29:46;94762.03;;;18.33;44.60
9855;BME280;4966;48.112;9.282;2023-06-04T06:32:11;94762.88;;;18.44;44.83
9855;BME280;4966;48.112;9.282;2023-06-04T06:34:36;94762.13;;;18.55;45.40
9855;BME280;4966;48.112;9.282;2023-06-04T06:37:03;94765.72;;;18.66;44.35
9855;BME280;4966;48.112;9.282;2023-06-04T06:39:28;94764.28;;;19.01;43.68
9855;BME280;4966;48.112;9.282;2023-06-04T06:41:54;94765.81;;;18.91;43.89
9855;BME280;4966;48.112;9.282;2023-06-04T06:44:19;94764.22;;;18.83;43.51
9855;BME280;4966;48.112;9.282;2023-06-04T06:46:45;94767.72;;;18.73;43.69
9855;BME280;4966;48.112;9.282;2023-06-04T06:49:12;94766.03;;;18.50;45.30
9855;BME280;4966;48.112;9.282;2023-06-04T06:51:37;94770.34;;;18.47;44.28
9855;BME280;4966;48.112;9.282;2023-06-04T06:54:02;94779.03;;;18.49;44.86
9855;BME280;4966;48.112;9.282;2023-06-04T06:56:28;94769.03;;;19.07;44.12
9855;BME280;4966;48.112;9.282;2023-06-04T06:58:53;94763.94;;;19.27;44.41
9855;BME280;4966;48.112;9.282;2023-06-04T07:01:19;94775.78;;;19.46;44.51
9855;BME280;4966;48.112;9.282;2023-06-04T07:03:44;94770.69;;;19.69;44.53
9855;BME280;4966;48.112;9.282;2023-06-04T07:06:10;94769.50;;;19.77;43.64
9855;BME280;4966;48.112;9.282;2023-06-04T07:08:35;94769.50;;;20.10;43.62
9855;BME280;4966;48.112;9.282;2023-06-04T07:11:02;94773.03;;;20.14;44.05
9855;BME280;4966;48.112;9.282;2023-06-04T07:13:28;94771.06;;;20.22;42.85
9855;BME280;4966;48.112;9.282;2023-06-04T07:15:54;94768.25;;;20.43;42.93
9855;BME280;4966;48.112;9.282;2023-06-04T07:18:19;94769.03;;;20.44;42.89
9855;BME280;4966;48.112;9.282;2023-06-04T07:20:45;94777.25;;;20.72;42.10
9855;BME280;4966;48.112;9.282;2023-06-04T07:23:10;94772.19;;;20.46;42.90
9855;BME280;4966;48.112;9.282;2023-06-04T07:25:35;94776.56;;;20.29;42.99
9855;BME280;4966;48.112;9.282;2023-06-04T07:28:01;94770.03;;;20.96;43.78
9855;BME280;4966;48.112;9.282;2023-06-04T07:30:29;94766.03;;;21.04;43.97
9855;BME280;4966;48.112;9.282;2023-06-04T07:32:55;94763.56;;;21.24;43.11
9855;BME280;4966;48.112;9.282;2023-06-04T07:35:21;94765.06;;;21.33;42.42
9855;BME280;4966;48.112;9.282;2023-06-04T07:37:46;94760.25;;;21.48;41.67
9855;BME280;4966;48.112;9.282;2023-06-04T07:40:14;94757.63;;;21.22;42.31
9855;BME280;4966;48.112;9.282;2023-06-04T07:42:41;94757.28;;;21.17;42.61
9855;BME280;4966;48.112;9.282;2023-06-04T07:45:07;94753.88;;;21.54;41.88
9855;BME280;4966;48.112;9.282;2023-06-04T07:47:34;94746.03;;;21.49;41.84
9855;BME280;4966;48.112;9.282;2023-06-04T07:50:00;94748.66;;;21.04;42.25
9855;BME280;4966;48.112;9.282;2023-06-04T07:52:25;94749.53;;;20.90;42.56
9855;BME280;4966;48.112;9.282;2023-06-04T07:54:50;94752.81;;;21.41;42.05
9855;BME280;4966;48.112;9.282;2023-06-04T07:57:16;94757.66;;;21.78;43.41
9855;BME280;4966;48.112;9.282;2023-06-04T07:59:41;94751.59;;;21.91;41.09
9855;BME280;4966;48.112;9.282;2023-06-04T08:02:07;94750.16;;;21.75;40.49
9855;BME280;4966;48.112;9.282;2023-06-04T08:04:32;94753.44;;;21.59;40.17
9855;BME280;4966;48.112;9.282;2023-06-04T08:06:58;94756.66;;;22.03;40.67
9855;BME280;4966;48.112;9.282;2023-06-04T08:09:23;94750.59;;;22.15;40.45
9855;BME280;4966;48.112;9.282;2023-06-04T08:11:49;94751.53;;;21.98;41.71
9855;BME280;4966;48.112;9.282;2023-06-04T08:14:14;94759.84;;;22.43;41.00
9855;BME280;4966;48.112;9.282;2023-06-04T08:16:40;94759.38;;;22.48;40.36
9855;BME280;4966;48.112;9.282;2023-06-04T08:19:06;94755.19;;;22.70;40.24
9855;BME280;4966;48.112;9.282;2023-06-04T08:21:32;94757.94;;;22.70;40.58
9855;BME280;4966;48.112;9.282;2023-06-04T08:23:58;94758.03;;;22.63;39.51
9855;BME280;4966;48.112;9.282;2023-06-04T08:26:24;94758.72;;;22.37;40.44
9855;BME280;4966;48.112;9.282;2023-06-04T08:28:50;94764.53;;;22.49;39.00
9855;BME280;4966;48.112;9.282;2023-06-04T08:31:16;94752.19;;;22.54;39.87
9855;BME280;4966;48.112;9.282;2023-06-04T08:33:42;94765.91;;;22.65;38.78
9855;BME280;4966;48.112;9.282;2023-06-04T08:36:07;94761.28;;;22.55;39.01
9855;BME280;4966;48.112;9.282;2023-06-04T08:38:33;94762.91;;;22.52;39.45
9855;BME280;4966;48.112;9.282;2023-06-04T08:41:48;94759.00;;;22.04;40.47
9855;BME280;4966;48.112;9.282;2023-06-04T08:43:55;94758.81;;;21.84;40.36
9855;BME280;4966;48.112;9.282;2023-06-04T08:46:21;94761.75;;;22.08;39.50
9855;BME280;4966;48.112;9.282;2023-06-04T08:48:49;94755.25;;;22.63;40.02
9855;BME280;4966;48.112;9.282;2023-06-04T08:51:14;94760.59;;;22.81;38.51
9855;BME280;4966;48.112;9.282;2023-06-04T08:53:42;94763.38;;;22.43;39.86
9855;BME280;4966;48.112;9.282;2023-06-04T08:56:07;94765.13;;;22.68;39.17
9855;BME280;4966;48.112;9.282;2023-06-04T08:58:33;94775.81;;;22.66;39.69
9855;BME280;4966;48.112;9.282;2023-06-04T09:01:00;94774.72;;;22.94;39.44
9855;BME280;4966;48.112;9.282;2023-06-04T09:03:26;94778.25;;;22.94;38.85
9855;BME280;4966;48.112;9.282;2023-06-04T09:05:52;94776.09;;;22.41;39.32
9855;BME280;4966;48.112;9.282;2023-06-04T09:08:19;94777.91;;;23.50;39.28
9855;BME280;4966;48.112;9.282;2023-06-04T09:10:46;94777.81;;;23.57;37.99
9855;BME280;4966;48.112;9.282;2023-06-04T09:13:15;94774.53;;;23.66;38.33
9855;BME280;4966;48.112;9.282;2023-06-04T09:15:41;94777.28;;;23.66;37.75
9855;BME280;4966;48.112;9.282;2023-06-04T09:18:06;94775.94;;;22.55;38.15
9855;BME280;4966;48.112;9.282;2023-06-04T09:20:31;94770.75;;;23.26;38.26
9855;BME280;4966;48.112;9.282;2023-06-04T09:22:58;94768.44;;;23.21;37.70
9855;BME280;4966;48.112;9.282;2023-06-04T09:25:24;94773.16;;;23.24;37.69
9855;BME280;4966;48.112;9.282;2023-06-04T09:27:50;94774.69;;;23.83;36.96
9855;BME280;4966;48.112;9.282;2023-06-04T09:30:16;94771.84;;;24.10;36.63
9855;BME280;4966;48.112;9.282;2023-06-04T09:32:42;94770.88;;;24.20;36.62
9855;BME280;4966;48.112;9.282;2023-06-04T09:35:18;94778.53;;;24.36;36.04
9855;BME280;4966;48.112;9.282;2023-06-04T09:37:55;94778.84;;;24.18;36.16
9855;BME280;4966;48.112;9.282;2023-06-04T09:40:21;94779.41;;;24.09;36.08
9855;BME280;4966;48.112;9.282;2023-06-04T09:42:50;94781.59;;;23.71;34.13
9855;BME280;4966;48.112;9.282;2023-06-04T09:45:35;94780.81;;;23.12;37.11
9855;BME280;4966;48.112;9.282;2023-06-04T09:48:02;94786.38;;;24.41;35.76
9855;BME280;4966;48.112;9.282;2023-06-04T09:50:30;94784.09;;;24.59;35.28
9855;BME280;4966;48.112;9.282;2023-06-04T09:52:56;94773.63;;;23.46;35.47
9855;BME280;4966;48.112;9.282;2023-06-04T09:55:22;94779.66;;;23.95;36.02
9855;BME280;4966;48.112;9.282;2023-06-04T09:57:49;94775.41;;;24.34;35.13
9855;BME280;4966;48.112;9.282;2023-06-04T10:00:22;94774.59;;;24.97;34.13
9855;BME280;4966;48.112;9.282;2023-06-04T10:02:48;94771.97;;;25.10;32.97
9855;BME280;4966;48.112;9.282;2023-06-04T10:05:15;94780.97;;;24.77;33.87
9855;BME280;4966;48.112;9.282;2023-06-04T10:07:45;94771.94;;;25.66;33.70
9855;BME280;4966;48.112;9.282;2023-06-04T10:10:18;94771.69;;;25.77;33.33
9855;BME280;4966;48.112;9.282;2023-06-04T10:12:49;94765.81;;;26.07;32.32
9855;BME280;4966;48.112;9.282;2023-06-04T10:15:17;94785.81;;;26.02;32.69
9855;BME280;4966;48.112;9.282;2023-06-04T10:17:42;94776.28;;;26.49;30.73
9855;BME280;4966;48.112;9.282;2023-06-04T10:20:08;94779.81;;;26.82;28.88
9855;BME280;4966;48.112;9.282;2023-06-04T10:22:35;94769.69;;;26.72;30.26
9855;BME280;4966;48.112;9.282;2023-06-04T10:25:00;94765.75;;;26.40;28.67
9855;BME280;4966;48.112;9.282;2023-06-04T10:27:26;94774.41;;;25.97;30.73
9855;BME280;4966;48.112;9.282;2023-06-04T10:29:51;94770.13;;;25.76;29.40
9855;BME280;4966;48.112;9.282;2023-06-04T10:32:18;94759.59;;;25.67;30.22
9855;BME280;4966;48.112;9.282;2023-06-04T10:34:44;94766.66;;;25.72;30.47
9855;BME280;4966;48.112;9.282;2023-06-04T10:37:25;94772.81;;;25.79;30.40
9855;BME280;4966;48.112;9.282;2023-06-04T10:39:53;94768.63;;;26.37;29.65
9855;BME280;4966;48.112;9.282;2023-06-04T10:42:18;94770.00;;;26.45;28.73
9855;BME280;4966;48.112;9.282;2023-06-04T10:44:47;94766.66;;;27.38;27.27
9855;BME280;4966;48.112;9.282;2023-06-04T10:47:25;94760.34;;;26.79;28.87
9855;BME280;4966;48.112;9.282;2023-06-04T10:49:52;94769.22;;;26.61;28.68
9855;BME280;4966;48.112;9.282;2023-06-04T10:52:18;94775.06;;;26.79;29.11
9855;BME280;4966;48.112;9.282;2023-06-04T10:54:45;94769.75;;;27.27;27.97
9855;BME280;4966;48.112;9.282;2023-06-04T10:57:16;94775.75;;;27.93;26.90
9855;BME280;4966;48.112;9.282;2023-06-04T10:59:53;94757.53;;;28.71;26.16
9855;BME280;4966;48.112;9.282;2023-06-04T11:02:18;94751.75;;;30.89;25.43
9855;BME280;4966;48.112;9.282;2023-06-04T11:04:44;94747.91;;;32.72;22.03
9855;BME280;4966;48.112;9.282;2023-06-04T11:07:09;94762.09;;;32.77;22.31
9855;BME280;4966;48.112;9.282;2023-06-04T11:09:36;94755.41;;;33.73;19.39
9855;BME280;4966;48.112;9.282;2023-06-04T11:12:03;94752.69;;;35.11;19.41
9855;BME280;4966;48.112;9.282;2023-06-04T11:14:29;94761.66;;;32.94;20.26
9855;BME280;4966;48.112;9.282;2023-06-04T11:16:55;94761.81;;;32.51;21.27
9855;BME280;4966;48.112;9.282;2023-06-04T11:19:20;94764.63;;;32.27;21.81
9855;BME280;4966;48.112;9.282;2023-06-04T11:21:45;94756.41;;;33.40;21.54
9855;BME280;4966;48.112;9.282;2023-06-04T11:24:12;94775.13;;;34.03;20.51
9855;BME280;4966;48.112;9.282;2023-06-04T11:26:37;94767.97;;;32.40;20.75
9855;BME280;4966;48.112;9.282;2023-06-04T11:29:07;94762.25;;;32.59;20.28
9855;BME280;4966;48.112;9.282;2023-06-04T11:31:47;94753.53;;;34.35;18.45
9855;BME280;4966;48.112;9.282;2023-06-04T11:34:26;94744.75;;;36.36;17.28
9855;BME280;4966;48.112;9.282;2023-06-04T11:36:52;94741.50;;;35.22;18.56
9855;BME280;4966;48.112;9.282;2023-06-04T11:39:21;94763.28;;;33.39;21.25
9855;BME280;4966;48.112;9.282;2023-06-04T11:41:47;94749.97;;;32.71;20.66
9855;BME280;4966;48.112;9.282;2023-06-04T11:44:13;94754.53;;;33.22;21.11
9855;BME280;4966;48.112;9.282;2023-06-04T11:46:42;94761.88;;;34.09;19.20
9855;BME280;4966;48.112;9.282;2023-06-04T11:49:17;94743.22;;;35.14;18.56
9855;BME280;4966;48.112;9.282;2023-06-04T11:51:50;94744.81;;;36.48;16.82
9855;BME280;4966;48.112;9.282;2023-06-04T11:54:16;94752.69;;;35.95;17.58
9855;BME280;4966;48.112;9.282;2023-06-04T11:56:43;94741.69;;;35.39;17.62
9855;BME280;4966;48.112;9.282;2023-06-04T11:59:15;94740.09;;;35.38;18.24
9855;BME280;4966;48.112;9.282;2023-06-04T12:01:45;94733.78;;;35.75;18.15
9855;BME280;4966;48.112;9.282;2023-06-04T12:04:18;94751.47;;;36.99;17.64
9855;BME280;4966;48.112;9.282;2023-06-04T12:06:54;94735.88;;;37.43;16.13
9855;BME280;4966;48.112;9.282;2023-06-04T12:09:24;94732.53;;;38.18;16.95
9855;BME280;4966;48.112;9.282;2023-06-04T12:11:59;94729.38;;;37.14;16.76
9855;BME280;4966;48.112;9.282;2023-06-04T12:14:25;94727.78;;;35.99;16.36
9855;BME280;4966;48.112;9.282;2023-06-04T12:16:57;94730.16;;;36.55;16.85
9855;BME280;4966;48.112;9.282;2023-06-04T12:19:23;94740.28;;;36.67;17.05
9855;BME280;4966;48.112;9.282;2023-06-04T12:24:25;94728.75;;;36.33;16.38
9855;BME280;4966;48.112;9.282;2023-06-04T12:27:01;94720.56;;;35.34;17.68
9855;BME280;4966;48.112;9.282;2023-06-04T12:29:27;94716.00;;;35.17;17.61
9855;BME280;4966;48.112;9.282;2023-06-04T12:32:02;94731.31;;;35.94;17.72
9855;BME280;4966;48.112;9.282;2023-06-04T12:34:27;94727.97;;;36.76;16.22
9855;BME280;4966;48.112;9.282;2023-06-04T12:36:53;94719.69;;;36.67;16.73
9855;BME280;4966;48.112;9.282;2023-06-04T12:39:18;94724.84;;;36.74;16.94
9855;BME280;4966;48.112;9.282;2023-06-04T12:41:47;94723.22;;;33.65;18.33
9855;BME280;4966;48.112;9.282;2023-06-04T12:44:12;94731.28;;;29.75;22.75
9855;BME280;4966;48.112;9.282;2023-06-04T12:46:37;94721.63;;;31.60;21.31
9855;BME280;4966;48.112;9.282;2023-06-04T12:49:03;94726.72;;;33.45;19.89
9855;BME280;4966;48.112;9.282;2023-06-04T12:51:28;94731.09;;;34.46;18.81
9855;BME280;4966;48.112;9.282;2023-06-04T12:53:53;94729.41;;;35.79;17.29
9855;BME280;4966;48.112;9.282;2023-06-04T12:56:19;94724.31;;;35.57;16.99
9855;BME280;4966;48.112;9.282;2023-06-04T12:58:44;94719.34;;;37.41;15.68
9855;BME280;4966;48.112;9.282;2023-06-04T13:01:09;94716.97;;;38.47;15.13
9855;BME280;4966;48.112;9.282;2023-06-04T13:03:40;94704.66;;;36.55;15.47
9855;BME280;4966;48.112;9.282;2023-06-04T13:06:05;94709.50;;;38.33;15.08
9855;BME280;4966;48.112;9.282;2023-06-04T13:08:32;94723.00;;;38.96;15.09
9855;BME280;4966;48.112;9.282;2023-06-04T13:10:58;94710.59;;;38.01;15.30
9855;BME280;4966;48.112;9.282;2023-06-04T13:13:24;94717.56;;;38.06;14.50
9855;BME280;4966;48.112;9.282;2023-06-04T13:15:49;94710.59;;;38.07;14.39
9855;BME280;4966;48.112;9.282;2023-06-04T13:18:15;94707.97;;;36.42;16.14
9855;BME280;4966;48.112;9.282;2023-06-04T13:20:40;94707.00;;;37.56;15.54
9855;BME280;4966;48.112;9.282;2023-06-04T13:23:06;94710.31;;;38.16;13.96
9855;BME280;4966;48.112;9.282;2023-06-04T13:25:32;94712.63;;;39.76;14.41
9855;BME280;4966;48.112;9.282;2023-06-04T13:27:59;94707.56;;;40.24;14.04
9855;BME280;4966;48.112;9.282;2023-06-04T13:30:25;94713.69;;;37.92;14.84